Time;durP1;ratioP1;P1;durP2;ratioP2;P2;SDS_P1;SDS_P2;PMS_P1;PMS_P2;Temp;Humidity;BMP_temperature;BMP_pressure;BME280_temperature;BME280_humidity;BME280_pressure;Samples;Min_cycle;Max_cycle;Signal;HPM_P1;HPM_P2
2022/10/27 00:00:11;;;;;;;27.27;20.23;;;;;;;29.83;72.74;100889.00;5088678;27;70844;-38
2022/10/27 00:02:44;;;;;;;23.25;17.60;;;;;;;29.76;71.79;100868.47;5089278;27;66329;-39
2022/10/27 00:05:15;;;;;;;20.23;17.95;;;;;;;29.86;72.13;100889.63;5094294;27;70110;-39
2022/10/27 00:07:48;;;;;;;28.73;18.63;;;;;;;29.90;72.13;100890.88;5087332;27;65851;-38
2022/10/27 00:10:20;;;;;;;26.05;18.77;;;;;;;29.91;72.08;100893.34;5100402;27;69456;-38
2022/10/27 00:12:51;;;;;;;20.95;17.63;;;;;;;29.84;72.75;100877.16;5094077;27;65626;-37
2022/10/27 00:15:23;;;;;;;21.13;16.83;;;;;;;29.83;72.52;100871.94;5089410;27;70112;-36
2022/10/27 00:17:54;;;;;;;24.77;17.27;;;;;;;29.94;74.14;100886.69;5097460;27;66316;-36
2022/10/27 00:20:25;;;;;;;18.33;16.42;;;;;;;29.99;73.73;100895.00;5099147;27;71065;-38
2022/10/27 00:22:56;;;;;;;22.90;16.80;;;;;;;30.01;71.54;100892.91;5083499;27;66153;-38
2022/10/27 00:25:27;;;;;;;19.70;16.60;;;;;;;29.97;73.84;100902.47;5094645;27;69616;-38
2022/10/27 00:28:16;;;;;;;17.13;15.13;;;;;;;29.93;73.29;100903.97;5101230;27;65647;-36
2022/10/27 00:30:47;;;;;;;22.08;16.10;;;;;;;30.05;71.60;100899.53;5104552;27;69511;-37
2022/10/27 00:33:18;;;;;;;17.70;15.57;;;;;;;30.02;73.08;100910.78;5100157;27;65833;-37
2022/10/27 00:35:50;;;;;;;15.80;14.30;;;;;;;30.02;73.36;100908.09;5091117;27;69787;-36
2022/10/27 00:38:22;;;;;;;30.70;13.63;;;;;;;30.04;73.53;100914.94;5082678;27;66042;-38
2022/10/27 00:40:53;;;;;;;21.10;13.95;;;;;;;30.04;73.72;100906.00;5084432;27;70195;-37
2022/10/27 00:43:35;;;;;;;15.98;12.95;;;;;;;30.08;73.23;100911.81;5092280;27;66272;-37
2022/10/27 00:46:06;;;;;;;16.33;12.25;;;;;;;30.21;69.96;100906.34;5087722;27;70387;-36
2022/10/27 00:48:37;;;;;;;13.43;11.80;;;;;;;30.22;69.06;100895.31;5087187;27;65784;-37
2022/10/27 00:51:11;;;;;;;15.20;11.60;;;;;;;30.28;68.78;100905.31;5078390;27;69695;-38
2022/10/27 00:53:44;;;;;;;13.98;10.60;;;;;;;30.32;68.76;100904.88;5087512;27;65599;-37
2022/10/27 00:56:19;;;;;;;11.18;10.10;;;;;;;30.35;68.22;100902.56;5098635;27;70507;-38
2022/10/27 00:58:51;;;;;;;19.27;10.82;;;;;;;30.38;68.49;100899.41;5093893;27;65343;-36
2022/10/27 01:01:22;;;;;;;12.82;10.73;;;;;;;30.30;68.38;100877.19;5093964;27;70428;-37
2022/10/27 01:03:54;;;;;;;14.13;10.25;;;;;;;30.42;68.11;100888.97;5086131;27;65918;-37
2022/10/27 01:06:26;;;;;;;10.82;10.05;;;;;;;29.93;68.11;100810.13;5097401;27;70160;-39
2022/10/27 01:08:58;;;;;;;11.80;10.13;;;;;;;30.47;67.49;100902.69;5089015;27;66349;-37
2022/10/27 01:11:29;;;;;;;;;;;;;;;30.08;68.64;100909.94;5094231;27;70139;-36
2022/10/27 01:14:00;;;;;;;10.57;9.65;;;;;;;30.46;68.07;100901.03;5093026;27;65347;-37
2022/10/27 01:16:43;;;;;;;10.07;9.02;;;;;;;29.89;67.25;100813.47;5095061;27;69981;-38
2022/10/27 01:19:36;;;;;;;13.65;9.77;;;;;;;30.35;67.42;100890.91;5098511;27;65354;-37
2022/10/27 01:22:08;;;;;;;12.38;10.15;;;;;;;30.53;67.90;100891.00;5088600;27;70212;-38
2022/10/27 01:25:01;;;;;;;10.73;9.60;;;;;;;30.15;66.86;100839.59;5090012;27;66593;-37
2022/10/27 01:27:56;;;;;;;12.00;9.75;;;;;;;30.57;67.71;100913.91;5095434;27;69598;-37
2022/10/27 01:30:31;;;;;;;10.68;9.88;;;;;;;30.60;67.52;100908.03;5089161;27;43415;-37
2022/10/27 01:33:04;;;;;;;13.50;9.82;;;;;;;30.60;67.60;100908.03;5087293;27;70375;-37
2022/10/27 01:35:53;;;;;;;9.85;8.85;;;;;;;30.60;67.24;100905.34;5097149;27;66292;-38
2022/10/27 01:39:01;;;;;;;9.60;8.63;;;;;;;30.44;67.44;100905.84;5088117;27;70240;-38
2022/10/27 01:41:46;;;;;;;9.90;8.73;;;;;;;30.60;67.06;100908.03;5074404;27;67136;-38
2022/10/27 01:44:36;;;;;;;8.90;8.20;;;;;;;30.58;66.75;100907.41;5081718;27;70108;-37
2022/10/27 01:47:09;;;;;;;8.80;7.97;;;;;;;30.66;66.73;100915.28;5082008;27;65844;-36
2022/10/27 01:49:42;;;;;;;10.68;8.20;;;;;;;30.69;66.60;100928.38;5080050;27;70432;-36
2022/10/27 01:52:40;;;;;;;9.52;8.60;;;;;;;30.59;67.12;100933.47;5078430;27;65886;-36
2022/10/27 01:55:17;;;;;;;8.23;7.60;;;;;;;30.69;66.75;100932.97;5081352;27;69996;-37
2022/10/27 01:58:02;;;;;;;9.48;8.68;;;;;;;30.72;66.83;100946.91;5084935;27;66571;-37
2022/10/27 02:00:49;;;;;;;7.97;7.38;;;;;;;30.59;66.80;100928.06;5094616;27;70418;-37
2022/10/27 02:03:33;;;;;;;9.20;8.35;;;;;;;30.75;66.46;100963.75;5093111;27;65279;-37
2022/10/27 02:06:18;;;;;;;9.32;8.30;;;;;;;30.58;66.75;100936.38;5079158;27;70127;-38
2022/10/27 02:08:57;;;;;;;9.65;8.63;;;;;;;30.25;66.39;100875.94;5088952;27;66009;-38
2022/10/27 02:11:32;;;;;;;10.93;7.95;;;;;;;30.82;66.62;100964.59;5094198;27;69782;-37
2022/10/27 02:14:04;;;;;;;7.80;7.20;;;;;;;30.83;66.70;100966.25;5096134;27;65457;-37
2022/10/27 02:16:41;;;;;;;8.45;7.78;;;;;;;30.61;66.40;100934.06;5092488;27;69921;-36
2022/10/27 02:19:29;;;;;;;8.63;7.82;;;;;;;30.83;66.42;100964.38;5079018;27;66401;-36
2022/10/27 02:22:02;;;;;;;7.63;7.03;;;;;;;30.89;65.98;100971.63;5090098;27;70728;-36
2022/10/27 02:24:33;;;;;;;8.20;7.45;;;;;;;30.89;66.28;100959.94;5092787;27;64932;-37
2022/10/27 02:27:09;;;;;;;8.20;7.55;;;;;;;30.93;66.19;100950.34;5095571;27;69603;-36
2022/10/27 02:29:48;;;;;;;9.35;7.10;;;;;;;30.92;66.18;100951.38;5094750;27;66120;-37
2022/10/27 02:32:22;;;;;;;8.05;7.43;;;;;;;30.94;65.80;100952.00;5091932;27;70931;-36
2022/10/27 02:34:53;;;;;;;7.63;7.13;;;;;;;30.97;66.29;100953.44;5077042;27;65758;-37
2022/10/27 02:37:30;;;;;;;8.35;7.57;;;;;;;30.47;65.99;100870.22;5092840;27;69549;-38
2022/10/27 02:40:02;;;;;;;7.50;7.00;;;;;;;31.01;65.59;100952.81;5091181;27;65692;-38
2022/10/27 02:42:33;;;;;;;7.72;6.95;;;;;;;31.02;65.79;100964.47;5096762;27;70881;-37
2022/10/27 02:45:04;;;;;;;8.53;6.93;;;;;;;31.05;65.75;100970.25;5097199;27;66071;-38
2022/10/27 02:47:55;;;;;;;8.10;7.43;;;;;;;30.95;65.93;100959.06;5096490;27;70220;-37
2022/10/27 02:50:35;;;;;;;7.10;6.45;;;;;;;31.09;65.42;100949.81;5083937;27;65915;-37
2022/10/27 02:53:11;;;;;;;7.05;6.50;;;;;;;31.01;65.68;100928.41;5094757;27;70149;-37
2022/10/27 02:55:42;;;;;;;7.25;6.75;;;;;;;31.14;65.85;100941.84;5097051;27;66848;-37
2022/10/27 02:58:16;;;;;;;7.85;7.35;;;;;;;31.19;65.34;100949.31;5096428;27;69488;-38
2022/10/27 03:00:47;;;;;;;10.27;9.57;;;;;;;31.11;65.30;100917.06;5088012;27;66533;-37
2022/10/27 03:03:21;;;;;;;12.30;11.20;;;;;;;31.09;65.37;100917.31;5099777;27;70538;-37
2022/10/27 03:05:53;;;;;;;12.93;11.77;;;;;;;31.26;65.38;100930.28;5092144;27;66716;-36
2022/10/27 03:08:24;;;;;;;13.25;12.23;;;;;;;31.28;65.27;100930.91;5094170;27;69561;-37
2022/10/27 03:10:55;;;;;;;17.25;14.70;;;;;;;31.27;65.25;100927.38;5092567;27;66304;-37
2022/10/27 03:13:26;;;;;;;15.40;14.05;;;;;;;31.30;64.88;100923.38;5083162;27;69957;-36
2022/10/27 03:15:57;;;;;;;16.35;14.90;;;;;;;31.34;65.15;100921.88;5096128;27;66453;-37
2022/10/27 03:18:28;;;;;;;16.55;14.90;;;;;;;31.28;65.14;100909.22;5087992;27;69494;-37
2022/10/27 03:20:59;;;;;;;16.27;14.57;;;;;;;31.25;65.41;100899.66;5081470;27;67645;-37
2022/10/27 03:23:30;;;;;;;16.58;15.10;;;;;;;31.37;65.02;100916.88;5085233;27;69983;-36
2022/10/27 03:26:01;;;;;;;16.88;15.13;;;;;;;31.35;65.01;100907.28;5089773;27;66236;-36
2022/10/27 03:28:35;;;;;;;22.70;18.10;;;;;;;31.39;64.91;100908.50;5092739;27;70346;-37
2022/10/27 03:31:06;;;;;;;21.48;17.33;;;;;;;31.40;64.81;100902.06;5097828;27;66171;-38
2022/10/27 03:33:37;;;;;;;25.30;16.90;;;;;;;31.41;64.75;100903.72;5097234;27;71597;-36
2022/10/27 03:36:10;;;;;;;17.50;15.73;;;;;;;31.41;64.60;100898.28;5090559;27;66809;-37
2022/10/27 03:38:41;;;;;;;17.40;15.90;;;;;;;31.42;64.46;100885.56;5088533;27;70212;-36
2022/10/27 03:41:22;;;;;;;17.10;15.63;;;;;;;31.44;64.35;100887.00;5091444;27;65778;-38
2022/10/27 03:43:58;;;;;;;20.38;16.00;;;;;;;31.46;64.56;100882.19;5080858;27;68843;-38
2022/10/27 03:46:29;;;;;;;17.67;15.88;;;;;;;31.49;64.48;100879.03;5079568;27;66553;-38
2022/10/27 03:49:03;;;;;;;17.60;15.93;;;;;;;31.50;64.75;100863.56;5082320;27;70263;-37
2022/10/27 03:51:34;;;;;;;18.20;15.93;;;;;;;31.51;64.43;100866.06;5085471;27;65699;-37
2022/10/27 03:54:05;;;;;;;22.80;17.30;;;;;;;31.48;64.21;100844.84;5082802;27;69242;-38
2022/10/27 03:56:36;;;;;;;17.38;15.52;;;;;;;31.50;64.38;100850.84;5084561;27;66262;-37
2022/10/27 03:59:09;;;;;;;18.00;16.25;;;;;;;31.56;64.23;100863.50;5084835;27;70251;-38
2022/10/27 04:01:41;;;;;;;19.45;15.60;;;;;;;31.56;64.39;100855.34;5088984;27;66166;-36
2022/10/27 04:04:12;;;;;;;;;;;;;;;31.21;65.54;100851.56;5079782;27;69412;-37
2022/10/27 04:06:45;;;;;;;16.70;15.10;;;;;;;31.51;64.50;100847.09;5088431;27;65354;-36
2022/10/27 04:09:16;;;;;;;17.40;15.52;;;;;;;31.54;64.44;100843.94;5091482;27;69702;-38
2022/10/27 04:11:47;;;;;;;16.40;14.93;;;;;;;31.57;63.99;100848.91;5090176;27;66671;-37
2022/10/27 04:14:20;;;;;;;17.77;14.90;;;;;;;31.57;64.29;100843.47;5090869;27;69522;-46
2022/10/27 04:16:59;;;;;;;16.88;14.88;;;;;;;31.59;64.55;100838.66;5088477;27;66256;-37
2022/10/27 04:19:30;;;;;;;17.85;15.02;;;;;;;31.46;64.28;100811.69;5088229;27;69388;-37
2022/10/27 04:22:03;;;;;;;15.00;13.75;;;;;;;31.60;64.29;100824.03;5099597;27;66531;-37
2022/10/27 04:24:34;;;;;;;15.50;14.00;;;;;;;31.59;64.31;100822.41;5098951;27;70472;-38
2022/10/27 04:27:08;;;;;;;17.85;14.57;;;;;;;31.61;64.00;100817.56;5091563;27;65874;-38
2022/10/27 04:29:43;;;;;;;19.02;14.30;;;;;;;31.62;64.51;100818.38;5084878;27;69906;-38
2022/10/27 04:32:14;;;;;;;22.67;14.82;;;;;;;31.60;64.35;100815.09;5083727;27;66663;-37
2022/10/27 04:34:45;;;;;;;15.50;14.00;;;;;;;31.63;64.08;100802.97;5094828;27;69509;-37
2022/10/27 04:37:16;;;;;;;15.10;13.45;;;;;;;31.60;64.21;100799.63;5085079;27;66805;-37
2022/10/27 04:39:47;;;;;;;15.13;13.73;;;;;;;31.64;64.14;100782.91;5084171;27;70428;-36
2022/10/27 04:42:18;;;;;;;14.55;13.10;;;;;;;31.66;64.06;100780.81;5099224;27;65901;-38
2022/10/27 04:44:49;;;;;;;14.05;12.80;;;;;;;31.67;64.35;100777.03;5099550;27;70736;-37
2022/10/27 04:47:23;;;;;;;18.02;13.80;;;;;;;31.66;64.12;100764.53;5088191;27;65412;-39
2022/10/27 04:49:54;;;;;;;14.98;13.57;;;;;;;31.67;64.35;100763.47;5096685;27;69124;-37
2022/10/27 04:52:25;;;;;;;14.32;12.82;;;;;;;31.68;64.37;100754.28;5098224;27;66624;-36
2022/10/27 04:54:56;;;;;;;13.87;12.60;;;;;;;31.74;64.09;100750.66;5096835;27;70343;-38
2022/10/27 04:57:27;;;;;;;14.43;13.05;;;;;;;31.77;64.24;100747.50;5093096;27;66618;-37
2022/10/27 04:59:58;;;;;;;12.98;11.88;;;;;;;31.76;64.08;100734.97;5088576;27;70964;-38
2022/10/27 05:02:32;;;;;;;12.70;11.57;;;;;;;31.81;63.98;100735.94;5097678;27;66185;-37
2022/10/27 05:05:07;;;;;;;11.40;10.60;;;;;;;31.84;63.86;100740.06;5082507;27;69687;-38
2022/10/27 05:07:38;;;;;;;13.90;12.57;;;;;;;31.82;63.64;100725.94;5083819;27;65345;-38
2022/10/27 05:10:09;;;;;;;12.93;11.82;;;;;;;31.84;64.25;100718.38;5097755;27;69572;-37
2022/10/27 05:12:40;;;;;;;12.50;11.50;;;;;;;31.88;63.96;100718.75;5101741;27;65858;-37
2022/10/27 05:15:11;;;;;;;14.05;10.55;;;;;;;31.86;63.96;100718.97;5095630;27;71384;-37
2022/10/27 05:17:43;;;;;;;12.43;11.32;;;;;;;31.86;63.78;100710.84;5079160;27;66227;-38
2022/10/27 05:20:14;;;;;;;12.23;11.13;;;;;;;31.87;63.99;100704.34;5080476;27;69545;-37
2022/10/27 05:22:45;;;;;;;11.32;10.50;;;;;;;31.86;63.98;100682.91;5082320;27;65851;-37
2022/10/27 05:25:22;;;;;;;11.20;10.43;;;;;;;31.88;63.95;100687.03;5092556;27;70484;-37
2022/10/27 05:27:53;;;;;;;11.75;10.85;;;;;;;31.88;64.16;100687.03;5095101;27;65960;-37
2022/10/27 05:30:24;;;;;;;12.27;10.77;;;;;;;31.89;63.83;100682.44;5083126;27;69938;-36
2022/10/27 05:32:55;;;;;;;10.75;9.95;;;;;;;31.80;63.84;100671.91;5086531;27;67093;-36
2022/10/27 05:35:26;;;;;;;10.45;9.52;;;;;;;31.88;63.71;100678.91;5090913;27;70797;-37
2022/10/27 05:37:58;;;;;;;10.33;9.63;;;;;;;31.90;63.89;100682.22;5094761;27;66690;-37
2022/10/27 05:40:36;;;;;;;10.40;9.70;;;;;;;31.91;63.83;100681.16;5093974;27;70697;-36
2022/10/27 05:43:08;;;;;;;11.98;9.73;;;;;;;31.92;64.02;100674.69;5094759;27;66542;-36
2022/10/27 05:45:39;;;;;;;11.32;10.63;;;;;;;31.47;63.78;100601.91;5067232;27;69691;-36
2022/10/27 05:48:10;;;;;;;10.70;9.80;;;;;;;31.86;63.97;100651.16;5098751;27;65998;-37
2022/10/27 05:50:41;;;;;;;10.30;9.57;;;;;;;31.89;63.89;100637.13;5095532;27;70291;-37
2022/10/27 05:53:12;;;;;;;10.47;9.60;;;;;;;31.89;63.67;100623.56;5098814;27;65323;-36
2022/10/27 05:55:43;;;;;;;9.73;8.95;;;;;;;31.90;64.13;100617.09;5097186;27;70320;-36
2022/10/27 05:58:14;;;;;;;9.57;8.95;;;;;;;31.89;63.86;100615.44;5086825;27;66746;-37
2022/10/27 06:00:45;;;;;;;10.23;9.50;;;;;;;31.87;63.93;100608.59;5089201;27;71239;-39
2022/10/27 06:03:23;;;;;;;10.07;9.27;;;;;;;31.89;63.80;100615.44;5097475;27;66747;-38
2022/10/27 06:05:54;;;;;;;10.00;9.35;;;;;;;31.90;63.84;100603.53;5097749;27;70212;-38
2022/10/27 06:08:25;;;;;;;9.82;8.93;;;;;;;31.90;63.75;100608.97;5094211;27;66097;-37
2022/10/27 06:10:57;;;;;;;9.83;8.97;;;;;;;31.78;63.73;100591.84;5062904;27;69864;-37
2022/10/27 06:13:29;;;;;;;9.55;8.70;;;;;;;31.81;64.04;100583.22;5092373;27;65183;-38
2022/10/27 06:16:00;;;;;;;9.13;8.50;;;;;;;31.93;63.76;100591.41;5083493;27;70142;-36
2022/10/27 06:18:31;;;;;;;9.57;8.93;;;;;;;31.92;63.81;100601.44;5087311;27;67383;-38
2022/10/27 06:21:03;;;;;;;9.40;8.43;;;;;;;31.93;63.62;100613.09;5087188;27;70136;-37
2022/10/27 06:23:34;;;;;;;9.23;8.57;;;;;;;31.92;63.64;100615.00;5096403;27;65694;-37
2022/10/27 06:26:05;;;;;;;9.13;8.52;;;;;;;31.82;63.85;100602.00;5088063;27;69994;-36
2022/10/27 06:28:36;;;;;;;9.17;8.43;;;;;;;31.93;63.56;100611.25;5087669;27;67762;-38
2022/10/27 06:31:07;;;;;;;8.63;8.03;;;;;;;31.93;63.69;100602.25;5097001;27;69322;-37
2022/10/27 06:33:38;;;;;;;9.50;8.70;;;;;;;31.94;63.67;100593.06;5096664;27;65799;-36
2022/10/27 06:36:09;;;;;;;9.15;8.45;;;;;;;31.93;63.45;100580.56;5097031;27;70915;-37
2022/10/27 06:38:40;;;;;;;9.02;8.43;;;;;;;31.93;63.62;100570.56;5097354;27;66776;-37
2022/10/27 06:41:12;;;;;;;9.45;8.65;;;;;;;31.91;63.77;100560.97;5092474;27;70338;-37
2022/10/27 06:47:20;;;;;;;9.52;8.70;;;;;;;31.82;64.26;100579.47;5048825;28;70606;-37
2022/10/27 06:53:10;;;;;;;8.73;8.07;;;;;;;31.86;63.80;100582.53;4899553;28;69269;-37
2022/10/27 07:03:52;;;;;;;9.00;8.30;;;;;;;31.61;64.00;100546.41;4832899;29;66707;-38
2022/10/27 07:06:47;;;;;;;8.80;8.20;;;;;;;31.45;64.04;100516.44;4820655;29;70159;-36
2022/10/27 07:09:16;;;;;;;9.27;8.48;;;;;;;31.79;63.62;100558.25;4818034;29;65959;-36
2022/10/27 07:12:33;;;;;;;10.75;7.80;;;;;;;31.73;64.12;100583.56;4822832;29;70459;-36
2022/10/27 07:15:11;;;;;;;9.00;8.25;;;;;;;31.89;63.99;100582.06;5088997;27;44868;-36
2022/10/27 07:18:19;;;;;;;9.00;8.15;;;;;;;31.77;64.28;100585.59;5088868;27;69750;-38
2022/10/27 07:21:14;;;;;;;10.10;8.50;;;;;;;31.86;63.94;100575.22;5092293;27;66175;-38
2022/10/27 07:27:09;;;;;;;7.68;7.00;;;;;;;31.82;64.11;100574.88;5067203;27;66454;-37
2022/10/27 07:29:41;;;;;;;8.10;7.50;;;;;;;31.85;64.30;100579.00;5084554;27;69618;-37
2022/10/27 07:32:38;;;;;;;9.00;8.20;;;;;;;31.82;64.45;100574.06;5061396;27;66134;-37
2022/10/27 07:35:42;;;;;;;9.10;8.40;;;;;;;31.81;64.25;100570.50;5054344;28;70602;-37
2022/10/27 07:42:21;;;;;;;;;;;;;;;;;;;;;
2022/10/27 07:44:52;;;;;;;8.52;7.80;;;;;;;31.59;64.63;100543.13;4940946;28;66583;-37
2022/10/27 07:47:24;;;;;;;8.65;7.88;;;;;;;31.75;65.09;100568.72;4990740;28;70446;-38
2022/10/27 07:56:18;;;;;;;10.55;8.50;;;;;;;31.65;65.11;100562.22;4988790;28;65814;-37
2022/10/27 07:59:26;;;;;;;9.27;8.57;;;;;;;31.64;65.47;100577.66;5012640;28;70037;-37
2022/10/27 08:02:49;;;;;;;9.93;8.75;;;;;;;31.66;65.69;100586.41;5030617;28;66478;-36
2022/10/27 08:05:57;;;;;;;12.60;8.83;;;;;;;31.68;65.55;100578.00;4953913;28;70459;-37
2022/10/27 08:08:29;;;;;;;11.98;8.38;;;;;;;31.70;65.56;100576.72;4955955;28;66261;-37
2022/10/27 08:11:04;;;;;;;9.38;8.63;;;;;;;31.70;65.56;100571.28;4952974;28;70061;-37
2022/10/27 08:17:03;;;;;;;10.05;8.75;;;;;;;31.56;66.22;100570.69;4951164;28;69961;-35
2022/10/27 08:19:35;;;;;;;9.68;8.65;;;;;;;31.67;65.71;100576.38;4964001;28;66327;-37
2022/10/27 08:22:44;;;;;;;9.80;8.80;;;;;;;31.60;66.07;100574.59;4960979;28;69516;-37
2022/10/27 08:25:44;;;;;;;9.93;9.02;;;;;;;31.57;66.20;100588.63;4945193;28;65833;-37
2022/10/27 08:28:15;;;;;;;9.48;8.68;;;;;;;31.57;66.43;100580.47;4952021;28;71390;-38
2022/10/27 08:31:44;;;;;;;9.93;9.02;;;;;;;31.50;67.16;100582.47;5004005;28;65420;-37
2022/10/27 08:34:29;;;;;;;9.40;8.57;;;;;;;31.59;66.56;100581.09;4997318;28;70344;-37
2022/10/27 08:37:18;;;;;;;10.00;9.25;;;;;;;31.29;67.47;100553.16;4998308;28;65767;-38
2022/10/27 08:39:49;;;;;;;9.45;8.68;;;;;;;31.54;66.60;100575.53;5008485;28;70411;-36
2022/10/27 08:44:16;;;;;;;;;;;;;;;;;;;;;
2022/10/27 08:50:05;;;;;;;10.30;8.88;;;;;;;31.46;67.82;100602.97;5036440;28;66325;-37
2022/10/27 08:53:35;;;;;;;8.82;8.13;;;;;;;31.46;67.85;100599.44;4999834;28;70381;-36
2022/10/27 08:56:10;;;;;;;8.88;8.23;;;;;;;31.45;67.23;100585.03;5039475;28;66638;-37
2022/10/27 08:58:44;;;;;;;8.57;7.85;;;;;;;31.36;67.35;100575.59;5036553;28;70782;-36
2022/10/27 09:02:43;;;;;;;9.70;8.80;;;;;;;31.37;68.19;100607.91;5036865;28;66355;-37
2022/10/27 09:05:39;;;;;;;9.43;8.65;;;;;;;31.35;68.21;100611.84;5041816;28;69426;-45
2022/10/27 09:15:13;;;;;;;8.90;8.02;;;;;;;31.36;68.09;100624.38;5040887;28;66499;-38
2022/10/27 09:18:03;;;;;;;9.00;8.30;;;;;;;30.96;67.71;100543.59;5047424;28;70279;-38
2022/10/27 09:24:58;;;;;;;13.30;9.13;;;;;;;31.05;71.45;100630.81;4920622;28;70676;-37
2022/10/27 09:30:51;;;;;;;10.27;9.43;;;;;;;30.01;73.64;100493.44;4912184;28;70525;-38
2022/10/27 09:40:17;;;;;;;11.27;9.65;;;;;;;30.79;74.97;100645.47;4835208;29;65684;-39
2022/10/27 09:43:05;;;;;;;11.15;10.10;;;;;;;30.64;75.89;100619.56;5074579;27;44462;-38
2022/10/27 09:46:41;;;;;;;10.57;9.48;;;;;;;30.70;76.62;100634.06;5046053;28;68585;-36
2022/10/27 09:49:48;;;;;;;10.52;9.55;;;;;;;30.73;76.23;100642.59;5043200;28;65338;-37
2022/10/27 09:52:28;;;;;;;10.90;9.73;;;;;;;30.69;76.85;100646.78;5014668;28;69780;-37
2022/10/27 09:55:19;;;;;;;9.75;9.15;;;;;;;30.68;76.84;100661.38;5033340;28;66528;-37
2022/10/27 09:58:17;;;;;;;10.60;9.00;;;;;;;30.70;77.58;100664.72;5030014;28;70428;-37
2022/10/27 10:01:06;;;;;;;10.98;9.88;;;;;;;30.69;77.46;100668.44;5030361;28;66616;-38
2022/10/27 10:03:38;;;;;;;10.48;9.68;;;;;;;30.60;77.42;100647.31;5038614;28;70247;-37
2022/10/27 10:06:26;;;;;;;11.27;10.25;;;;;;;30.43;77.79;100638.97;5037829;28;66630;-37
2022/10/27 10:09:26;;;;;;;20.30;10.52;;;;;;;30.55;78.15;100677.75;5062057;27;70188;-37
2022/10/27 10:12:20;;;;;;;9.77;8.82;;;;;;;30.60;78.56;100679.81;5054289;28;65059;-38
2022/10/27 10:15:18;;;;;;;11.00;9.90;;;;;;;30.57;78.95;100686.50;5054832;27;69904;-38
2022/10/27 10:18:00;;;;;;;11.13;9.88;;;;;;;29.71;79.14;100541.97;5062359;28;64937;-37
2022/10/27 10:20:41;;;;;;;11.55;10.40;;;;;;;30.61;78.89;100679.56;5066918;27;70403;-39
2022/10/27 10:23:23;;;;;;;13.00;9.88;;;;;;;30.62;79.55;100707.47;5060330;28;66406;-38
2022/10/27 10:25:58;;;;;;;12.52;10.50;;;;;;;30.61;79.36;100686.88;5035706;28;69849;-38
2022/10/27 10:28:43;;;;;;;11.00;9.95;;;;;;;30.14;79.55;100619.59;5063283;28;65407;-39
2022/10/27 10:31:22;;;;;;;19.20;11.95;;;;;;;30.73;78.78;100709.47;5068051;28;70364;-37
2022/10/27 10:34:03;;;;;;;14.88;10.45;;;;;;;30.30;79.85;100639.06;5062685;27;65718;-38
2022/10/27 10:36:39;;;;;;;11.70;10.55;;;;;;;30.68;79.87;100712.84;5066515;28;69688;-36
2022/10/27 10:39:34;;;;;;;13.55;11.75;;;;;;;30.39;79.66;100691.84;5060306;28;66288;-39
2022/10/27 10:42:18;;;;;;;15.40;11.65;;;;;;;30.62;80.43;100732.69;5065094;28;70485;-36
2022/10/27 10:45:21;;;;;;;13.13;11.65;;;;;;;30.15;80.24;100672.69;5061180;28;65705;-37
2022/10/27 10:47:58;;;;;;;13.32;12.07;;;;;;;30.11;80.50;100660.63;5059241;28;70439;-37
2022/10/27 10:50:31;;;;;;;12.05;10.80;;;;;;;30.54;80.66;100734.84;5054585;28;65289;-37
2022/10/27 10:53:02;;;;;;;11.82;10.90;;;;;;;30.63;81.06;100755.97;5060512;27;69515;-37
2022/10/27 10:55:38;;;;;;;15.60;11.07;;;;;;;30.80;78.37;100755.47;5049400;28;65490;-38
2022/10/27 10:58:16;;;;;;;10.93;10.02;;;;;;;30.47;77.63;100691.56;5043496;28;69505;-36
2022/10/27 11:00:57;;;;;;;10.38;9.57;;;;;;;30.89;77.66;100748.69;5036115;28;65209;-36
2022/10/27 11:03:39;;;;;;;10.00;9.07;;;;;;;30.83;76.59;100730.63;5044172;28;70215;-37
2022/10/27 11:06:20;;;;;;;10.85;9.95;;;;;;;30.48;77.05;100672.41;5041961;28;66335;-38
2022/10/27 11:08:59;;;;;;;10.43;9.63;;;;;;;31.04;76.36;100757.31;5041042;28;69588;-38
2022/10/27 11:11:39;;;;;;;11.00;10.00;;;;;;;30.97;76.10;100742.16;5044617;28;65278;-37
2022/10/27 11:14:18;;;;;;;10.52;9.52;;;;;;;31.09;76.28;100760.16;5038119;28;70036;-37
2022/10/27 11:16:57;;;;;;;11.02;9.95;;;;;;;31.11;76.05;100758.03;5040459;28;66528;-38
2022/10/27 11:19:35;;;;;;;11.63;10.50;;;;;;;30.69;76.12;100683.88;5040902;28;70020;-39
2022/10/27 11:22:16;;;;;;;10.10;9.20;;;;;;;31.09;75.88;100759.31;5037391;28;66309;-38
2022/10/27 11:25:02;;;;;;;12.70;11.60;;;;;;;31.13;76.08;100788.47;5038571;28;70140;-37
2022/10/27 11:27:50;;;;;;;11.70;10.77;;;;;;;31.13;75.89;100796.59;5048326;28;66567;-39
2022/10/27 11:30:26;;;;;;;11.40;10.65;;;;;;;30.68;76.11;100714.72;5037114;28;69988;-37
2022/10/27 11:33:03;;;;;;;11.18;10.45;;;;;;;31.19;75.86;100794.88;5040112;28;65235;-38
2022/10/27 11:36:06;;;;;;;12.05;10.85;;;;;;;30.60;76.26;100713.13;5054573;28;69851;-37
2022/10/27 11:38:50;;;;;;;11.38;10.43;;;;;;;31.15;76.59;100799.91;5039447;28;65472;-38
2022/10/27 11:41:54;;;;;;;11.82;10.93;;;;;;;31.07;76.65;100816.44;5034908;28;70595;-37
2022/10/27 11:44:42;;;;;;;13.80;11.65;;;;;;;31.11;76.84;100817.66;5035046;28;66257;-37
2022/10/27 11:47:13;;;;;;;12.90;11.80;;;;;;;31.20;76.35;100809.22;5043442;27;68688;-37
2022/10/27 11:49:59;;;;;;;13.20;11.43;;;;;;;31.21;76.62;100816.31;5049796;28;66434;-37
2022/10/27 11:52:38;;;;;;;13.95;11.65;;;;;;;31.21;76.70;100819.03;5038643;28;69436;-38
2022/10/27 11:55:13;;;;;;;15.85;11.18;;;;;;;31.01;76.88;100798.38;5052151;28;65756;-37
2022/10/27 11:58:01;;;;;;;21.60;11.95;;;;;;;30.63;76.65;100758.69;5040507;28;70489;-37
2022/10/27 12:01:19;;;;;;;14.52;11.48;;;;;;;30.81;80.32;100838.34;5039932;28;65834;-37
2022/10/27 12:03:58;;;;;;;20.60;12.30;;;;;;;30.87;81.10;100848.28;5036424;28;70300;-38
2022/10/27 12:06:42;;;;;;;14.43;11.43;;;;;;;30.46;81.82;100795.50;5037753;28;66195;-39
2022/10/27 12:09:36;;;;;;;13.35;10.40;;;;;;;30.76;82.47;100855.25;5034197;28;70681;-39
2022/10/27 12:12:16;;;;;;;11.70;10.55;;;;;;;30.24;82.92;100778.78;5035719;28;66526;-37
2022/10/27 12:15:25;;;;;;;29.30;11.30;;;;;;;30.58;83.69;100861.41;5037416;28;70467;-38
2022/10/27 12:18:02;;;;;;;17.05;11.93;;;;;;;30.67;84.01;100862.81;5037612;28;65946;-36
2022/10/27 12:20:41;;;;;;;17.55;11.55;;;;;;;30.64;84.00;100865.94;5042016;28;70126;-38
2022/10/27 12:23:17;;;;;;;22.65;11.73;;;;;;;30.57;83.40;100848.91;5035813;28;65650;-37
2022/10/27 12:26:12;;;;;;;13.68;11.27;;;;;;;30.59;83.37;100856.81;5041307;28;70160;-38
2022/10/27 12:28:44;;;;;;;13.57;10.50;;;;;;;30.19;83.88;100790.22;5048611;28;66892;-37
2022/10/27 12:31:23;;;;;;;17.40;10.10;;;;;;;29.96;82.61;100743.97;5040801;28;70126;-39
2022/10/27 12:33:58;;;;;;;16.05;9.40;;;;;;;30.61;82.68;100855.53;5035876;28;67013;-37
2022/10/27 12:36:44;;;;;;;16.33;8.57;;;;;;;30.53;82.48;100861.22;5034541;28;70168;-37
2022/10/27 12:39:28;;;;;;;8.70;7.93;;;;;;;30.49;82.63;100865.44;5069810;28;65596;-43
2022/10/27 12:42:31;;;;;;;11.73;7.53;;;;;;;30.43;82.51;100859.00;5044076;28;69649;-37
2022/10/27 12:45:30;;;;;;;8.07;7.15;;;;;;;30.42;81.85;100845.69;5038586;28;66062;-38
2022/10/27 12:48:22;;;;;;;8.02;7.32;;;;;;;30.44;82.11;100854.41;5040835;28;70167;-39
2022/10/27 12:51:02;;;;;;;;;;;;;;;30.20;82.56;100856.81;5040458;28;65403;-38
2022/10/27 12:53:41;;;;;;;8.52;7.20;;;;;;;30.43;81.69;100858.19;5040236;28;70691;-37
2022/10/27 12:56:28;;;;;;;7.35;6.50;;;;;;;30.42;81.47;100854.66;5029954;28;66268;-37
2022/10/27 12:59:14;;;;;;;7.40;6.70;;;;;;;30.42;81.51;100845.69;5018971;28;69301;-37
2022/10/27 13:01:58;;;;;;;7.65;6.53;;;;;;;30.41;81.14;100846.72;5045525;28;66285;-36
2022/10/27 13:05:21;;;;;;;7.07;6.55;;;;;;;30.34;81.65;100843.22;5031090;28;70001;-38
2022/10/27 13:08:16;;;;;;;7.00;6.50;;;;;;;29.83;81.37;100759.22;5031668;28;66270;-37
2022/10/27 13:11:20;;;;;;;6.93;6.35;;;;;;;29.78;81.35;100737.44;5036257;28;70430;-38
2022/10/27 13:14:09;;;;;;;6.97;6.07;;;;;;;30.46;81.23;100842.31;5048877;28;65718;-37